createdAt,value
2023-02-19T00:00:06.404Z,100574.31
2023-02-19T00:02:35.762Z,100575.00
2023-02-19T00:05:04.588Z,100577.78
2023-02-19T00:07:33.173Z,100568.97
2023-02-19T00:10:01.104Z,100577.22
2023-02-19T00:12:29.393Z,100584.16
2023-02-19T00:14:58.649Z,100580.53
2023-02-19T00:17:27.335Z,100591.47
2023-02-19T00:19:55.136Z,100602.03
2023-02-19T00:22:24.059Z,100601.13
2023-02-19T00:24:52.024Z,100599.75
2023-02-19T00:27:19.909Z,100593.09
2023-02-19T00:29:46.824Z,100602.91
2023-02-19T00:32:13.798Z,100603.00
2023-02-19T00:34:42.510Z,100599.06
2023-02-19T00:37:10.273Z,100608.50
2023-02-19T00:39:37.995Z,100608.28
2023-02-19T00:42:06.074Z,100608.34
2023-02-19T00:44:33.901Z,100604.09
2023-02-19T00:47:00.888Z,100611.06
2023-02-19T00:49:28.855Z,100621.03
2023-02-19T00:51:55.761Z,100619.63
2023-02-19T00:54:24.875Z,100615.34
2023-02-19T00:56:52.677Z,100620.25
2023-02-19T00:59:21.257Z,100619.56
2023-02-19T01:01:49.962Z,100621.28
2023-02-19T01:04:16.953Z,100612.47
2023-02-19T01:06:44.964Z,100611.69
2023-02-19T01:09:13.991Z,100613.53
2023-02-19T01:11:41.073Z,100626.75
2023-02-19T01:14:12.698Z,100618.22
2023-02-19T01:16:39.621Z,100618.75
2023-02-19T01:19:06.614Z,100614.38
2023-02-19T01:21:34.561Z,100610.25
2023-02-19T01:24:02.467Z,100620.28
2023-02-19T01:26:35.251Z,100622.00
2023-02-19T01:29:03.260Z,100626.97
2023-02-19T01:31:32.846Z,100622.25
2023-02-19T01:34:01.695Z,100621.06
2023-02-19T01:36:30.152Z,100616.22
2023-02-19T01:39:00.878Z,100617.09
2023-02-19T01:41:28.643Z,100619.63
2023-02-19T01:43:59.405Z,100611.91
2023-02-19T01:46:33.308Z,100610.97
2023-02-19T01:49:06.283Z,100610.97
2023-02-19T01:51:38.068Z,100611.69
2023-02-19T01:54:10.006Z,100621.78
2023-02-19T01:56:41.027Z,100612.78
2023-02-19T01:59:08.369Z,100621.34
2023-02-19T02:01:39.539Z,100609.31
2023-02-19T02:04:11.192Z,100613.66
2023-02-19T02:07:00.025Z,100623.03
2023-02-19T02:10:05.836Z,100624.78
2023-02-19T02:12:32.907Z,100632.00
2023-02-19T02:15:00.836Z,100628.22
2023-02-19T02:17:49.824Z,100620.44
2023-02-19T02:20:40.683Z,100621.28
2023-02-19T02:23:17.065Z,100620.25
2023-02-19T02:25:57.347Z,100625.34
2023-02-19T02:28:26.913Z,100628.09
2023-02-19T02:30:59.865Z,100616.56
2023-02-19T02:33:44.324Z,100617.16
2023-02-19T02:36:18.493Z,100618.50
2023-02-19T02:38:47.431Z,100616.47
2023-02-19T02:41:16.075Z,100608.25
2023-02-19T02:43:43.187Z,100623.91
2023-02-19T02:46:13.631Z,100618.13
2023-02-19T02:48:45.631Z,100628.88
2023-02-19T02:51:21.115Z,100630.09
2023-02-19T02:54:16.210Z,100635.59
2023-02-19T02:56:46.583Z,100639.59
2023-02-19T02:59:20.099Z,100632.38
2023-02-19T03:02:11.930Z,100638.19
2023-02-19T03:05:25.838Z,100635.47
2023-02-19T03:08:00.898Z,100641.25
2023-02-19T03:10:44.775Z,100627.81
2023-02-19T03:13:37.500Z,100619.44
2023-02-19T03:16:30.873Z,100623.31
2023-02-19T03:19:19.137Z,100629.31
2023-02-19T03:21:57.115Z,100633.31
2023-02-19T03:24:48.419Z,100643.94
2023-02-19T03:27:17.105Z,100638.47
2023-02-19T03:29:48.905Z,100642.16
2023-02-19T03:32:53.183Z,100646.38
2023-02-19T03:35:32.002Z,100642.53
2023-02-19T03:38:18.726Z,100646.03
2023-02-19T03:40:54.334Z,100651.00
2023-02-19T03:43:46.601Z,100658.94
2023-02-19T03:46:23.397Z,100665.00
2023-02-19T03:48:59.466Z,100670.34
2023-02-19T03:51:40.649Z,100683.44
2023-02-19T03:54:39.488Z,100688.63
2023-02-19T03:57:19.207Z,100696.50
2023-02-19T03:59:57.279Z,100696.81
2023-02-19T04:02:50.857Z,100686.94
2023-02-19T04:05:29.455Z,100668.69
2023-02-19T04:08:10.300Z,100676.78
2023-02-19T04:10:39.903Z,100672.31
2023-02-19T04:13:27.053Z,100673.41
2023-02-19T04:16:01.408Z,100676.84
2023-02-19T04:18:34.048Z,100681.13
2023-02-19T04:21:03.430Z,100684.09
2023-02-19T04:23:36.806Z,100686.78
2023-02-19T04:26:05.285Z,100678.38
2023-02-19T04:28:32.270Z,100680.03
2023-02-19T04:31:02.131Z,100682.63
2023-02-19T04:33:29.920Z,100691.28
2023-02-19T04:35:57.647Z,100698.13
2023-02-19T04:38:25.622Z,100683.44
2023-02-19T04:40:52.614Z,100685.97
2023-02-19T04:43:20.055Z,100684.31
2023-02-19T04:45:47.899Z,100673.28
2023-02-19T04:48:15.796Z,100673.19
2023-02-19T04:50:43.566Z,100663.81
2023-02-19T04:53:10.520Z,100670.16
2023-02-19T04:55:39.719Z,100678.88
2023-02-19T04:58:06.615Z,100688.09
2023-02-19T05:00:34.619Z,100674.78
2023-02-19T05:03:02.495Z,100680.44
2023-02-19T05:05:30.452Z,100667.66
2023-02-19T05:07:57.489Z,100668.69
2023-02-19T05:10:24.519Z,100644.75
2023-02-19T05:12:52.184Z,100641.34
2023-02-19T05:15:19.774Z,100647.41
2023-02-19T05:17:47.345Z,100647.28
2023-02-19T05:20:15.943Z,100643.84
2023-02-19T05:22:43.558Z,100641.97
2023-02-19T05:25:10.410Z,100640.16
2023-02-19T05:27:38.006Z,100644.47
2023-02-19T05:30:06.460Z,100649.91
2023-02-19T05:32:35.963Z,100644.69
2023-02-19T05:35:02.922Z,100644.09
2023-02-19T05:37:31.772Z,100647.84
2023-02-19T05:39:59.516Z,100648.84
2023-02-19T05:42:27.195Z,100645.53
2023-02-19T05:44:54.058Z,100643.81
2023-02-19T05:47:21.856Z,100645.44
2023-02-19T05:49:49.681Z,100635.69
2023-02-19T05:52:16.545Z,100646.16
2023-02-19T05:54:43.518Z,100639.97
2023-02-19T05:57:11.293Z,100645.25
2023-02-19T05:59:39.097Z,100644.28
2023-02-19T06:02:06.789Z,100642.53
2023-02-19T06:04:33.860Z,100643.66
2023-02-19T06:07:00.814Z,100640.91
2023-02-19T06:09:28.782Z,100648.84
2023-02-19T06:11:55.702Z,100650.81
2023-02-19T06:14:23.604Z,100639.59
2023-02-19T06:16:51.284Z,100640.88
2023-02-19T06:19:18.274Z,100645.97
2023-02-19T06:21:46.885Z,100646.19
2023-02-19T06:24:13.817Z,100653.16
2023-02-19T06:26:40.685Z,100647.00
2023-02-19T06:29:08.366Z,100646.59
2023-02-19T06:31:36.331Z,100650.16
2023-02-19T06:34:05.290Z,100647.75
2023-02-19T06:36:32.218Z,100637.75
2023-02-19T06:39:03.482Z,100634.22
2023-02-19T06:41:30.449Z,100635.16
2023-02-19T06:43:58.448Z,100627.91
2023-02-19T06:48:54.220Z,100630.25
2023-02-19T06:51:27.466Z,100636.75
2023-02-19T06:53:57.029Z,100617.13
2023-02-19T06:56:27.020Z,100605.97
2023-02-19T06:58:55.826Z,100604.66
2023-02-19T07:01:24.423Z,100604.41
2023-02-19T07:03:52.825Z,100594.34
2023-02-19T07:06:22.348Z,100595.78
2023-02-19T07:08:52.226Z,100593.03
2023-02-19T07:11:19.988Z,100599.03
2023-02-19T07:13:47.736Z,100590.88
2023-02-19T07:16:16.017Z,100591.94
2023-02-19T07:18:44.559Z,100591.63
2023-02-19T07:21:14.263Z,100580.81
2023-02-19T07:23:44.148Z,100577.66
2023-02-19T07:26:14.285Z,100570.00
2023-02-19T07:28:43.587Z,100568.81
2023-02-19T07:31:13.642Z,100558.72
2023-02-19T07:33:46.162Z,100559.81
2023-02-19T07:36:17.108Z,100553.94
2023-02-19T07:38:46.644Z,100550.75
2023-02-19T07:41:14.675Z,100544.78
2023-02-19T07:43:43.360Z,100551.00
2023-02-19T07:46:13.469Z,100544.16
2023-02-19T07:48:43.245Z,100548.53
2023-02-19T07:51:14.101Z,100551.28
2023-02-19T07:53:43.115Z,100551.13
2023-02-19T07:56:13.159Z,100552.97
2023-02-19T07:58:42.544Z,100558.09
2023-02-19T08:01:15.040Z,100552.00
2023-02-19T08:03:44.846Z,100555.59
2023-02-19T08:06:13.719Z,100557.16
2023-02-19T08:08:42.340Z,100561.47
2023-02-19T08:11:28.958Z,100569.44
2023-02-19T08:13:57.156Z,100573.72
2023-02-19T08:16:42.248Z,100580.44
2023-02-19T08:19:11.887Z,100575.59
2023-02-19T08:21:40.147Z,100578.97
2023-02-19T08:24:09.229Z,100577.41
2023-02-19T08:26:38.169Z,100559.91
2023-02-19T08:29:07.084Z,100564.19
2023-02-19T08:31:36.361Z,100571.19
2023-02-19T08:34:05.082Z,100566.94
2023-02-19T08:36:33.666Z,100584.13
2023-02-19T08:39:02.285Z,100586.53
2023-02-19T08:41:30.996Z,100594.47
2023-02-19T08:43:58.947Z,100580.53
2023-02-19T08:46:26.963Z,100557.97
2023-02-19T08:48:56.055Z,100566.69
2023-02-19T08:51:24.721Z,100564.78
2023-02-19T08:53:53.252Z,100557.06
2023-02-19T08:56:21.856Z,100537.84
2023-02-19T08:58:50.586Z,100543.09
2023-02-19T09:01:19.601Z,100558.06
2023-02-19T09:03:48.264Z,100561.75
2023-02-19T09:06:19.837Z,100561.84
2023-02-19T09:08:48.408Z,100573.19
2023-02-19T09:11:17.548Z,100568.81
2023-02-19T09:13:46.177Z,100561.00
2023-02-19T09:16:15.464Z,100555.91
2023-02-19T09:18:45.900Z,100556.06
2023-02-19T09:21:14.561Z,100543.91
2023-02-19T09:23:42.732Z,100548.28
2023-02-19T09:26:11.571Z,100530.94
2023-02-19T09:28:41.967Z,100531.03
2023-02-19T09:31:16.705Z,100525.94
2023-02-19T09:33:47.409Z,100532.91
2023-02-19T09:36:19.042Z,100534.66
2023-02-19T09:38:47.055Z,100526.84
2023-02-19T09:41:19.017Z,100540.75
2023-02-19T09:43:47.652Z,100536.41
2023-02-19T09:46:30.740Z,100535.56
2023-02-19T09:49:15.872Z,100531.13
2023-02-19T09:51:51.550Z,100538.97
2023-02-19T09:54:29.352Z,100536.31
2023-02-19T09:57:03.155Z,100553.78
2023-02-19T09:59:50.568Z,100567.72
2023-02-19T10:02:24.556Z,100555.53
2023-02-19T10:04:53.889Z,100547.81
2023-02-19T10:07:32.136Z,100541.75
2023-02-19T10:10:17.924Z,100535.63
2023-02-19T10:12:52.408Z,100548.69
2023-02-19T10:15:25.682Z,100538.25
2023-02-19T10:17:54.612Z,100540.97
2023-02-19T10:20:27.900Z,100538.38
2023-02-19T10:23:04.178Z,100533.94
2023-02-19T10:25:34.711Z,100535.59
2023-02-19T10:28:04.405Z,100532.97
2023-02-19T10:30:36.176Z,100526.88
2023-02-19T10:33:13.056Z,100522.47
2023-02-19T10:35:54.649Z,100501.66
2023-02-19T10:38:35.471Z,100497.34
2023-02-19T10:41:18.270Z,100481.66
2023-02-19T10:44:03.490Z,100468.53
2023-02-19T10:46:35.990Z,100445.03
2023-02-19T10:49:18.945Z,100445.03
2023-02-19T10:51:48.112Z,100418.88
2023-02-19T10:54:30.334Z,100412.78
2023-02-19T10:57:21.256Z,100397.97
2023-02-19T10:59:51.717Z,100393.59
2023-02-19T11:02:22.262Z,100390.13
2023-02-19T11:05:16.397Z,100384.91
2023-02-19T11:07:56.544Z,100380.56
2023-02-19T11:10:42.693Z,100383.19
2023-02-19T11:13:16.809Z,100392.75
2023-02-19T11:15:53.086Z,100390.97
2023-02-19T11:18:21.711Z,100393.66
2023-02-19T11:20:56.922Z,100393.63
2023-02-19T11:23:30.598Z,100398.88
2023-02-19T11:26:16.201Z,100412.78
2023-02-19T11:28:45.025Z,100428.47
2023-02-19T11:31:20.104Z,100441.41
2023-02-19T11:34:15.137Z,100439.69
2023-02-19T11:36:43.732Z,100440.66
2023-02-19T11:39:15.184Z,100438.88
2023-02-19T11:42:02.177Z,100431.06
2023-02-19T11:44:49.263Z,100432.84
2023-02-19T11:47:16.050Z,100418.94
2023-02-19T11:50:09.393Z,100429.22
2023-02-19T11:53:00.680Z,100424.84
2023-02-19T11:55:36.765Z,100415.31
2023-02-19T11:58:42.232Z,100424.94
2023-02-19T12:01:29.594Z,100409.28
2023-02-19T12:04:08.680Z,100411.91
2023-02-19T12:07:02.064Z,100400.75
2023-02-19T12:09:58.827Z,100393.78
2023-02-19T12:12:57.188Z,100399.84
2023-02-19T12:18:42.134Z,100387.53
2023-02-19T12:21:30.236Z,100398.00
2023-02-19T12:24:19.646Z,100391.75
2023-02-19T12:27:20.658Z,100402.28
2023-02-19T12:30:07.138Z,100398.84
2023-02-19T12:32:57.461Z,100387.41
2023-02-19T12:35:46.611Z,100380.97
2023-02-19T12:38:23.576Z,100393.53
2023-02-19T12:41:16.823Z,100384.59
2023-02-19T12:44:01.690Z,100390.75
2023-02-19T12:46:38.771Z,100382.53
2023-02-19T12:49:22.948Z,100369.19
2023-02-19T12:52:22.140Z,100368.91
2023-02-19T12:54:58.410Z,100370.97
2023-02-19T12:57:35.457Z,100371.22
2023-02-19T13:00:31.872Z,100375.16
2023-02-19T13:03:06.448Z,100382.13
2023-02-19T13:05:59.249Z,100373.59
2023-02-19T13:08:42.067Z,100381.31
2023-02-19T13:11:25.244Z,100381.16
2023-02-19T13:14:24.389Z,100384.97
2023-02-19T13:17:00.580Z,100405.41
2023-02-19T13:19:30.722Z,100388.00
2023-02-19T13:22:33.229Z,100393.81
2023-02-19T13:25:02.877Z,100383.31
2023-02-19T13:28:03.463Z,100399.34
2023-02-19T13:31:02.691Z,100391.44
2023-02-19T13:33:45.816Z,100390.28
2023-02-19T13:36:26.082Z,100377.56
2023-02-19T13:38:57.522Z,100361.63
2023-02-19T13:41:41.744Z,100359.97
2023-02-19T13:44:20.231Z,100372.22
2023-02-19T13:46:50.299Z,100360.94
2023-02-19T13:49:36.479Z,100356.22
2023-02-19T13:52:29.851Z,100361.28
2023-02-19T13:55:35.392Z,100364.31
2023-02-19T13:58:33.402Z,100367.44
2023-02-19T14:01:11.963Z,100366.13
2023-02-19T14:03:45.973Z,100361.84
2023-02-19T14:06:15.191Z,100342.13
2023-02-19T14:08:52.685Z,100329.44
2023-02-19T14:11:47.911Z,100347.00
2023-02-19T14:14:36.671Z,100360.28
2023-02-19T14:17:10.224Z,100362.88
2023-02-19T14:19:55.535Z,100357.34
2023-02-19T14:22:57.776Z,100348.34
2023-02-19T14:25:30.880Z,100341.41
2023-02-19T14:28:07.383Z,100345.06
2023-02-19T14:30:46.098Z,100342.44
2023-02-19T14:33:17.528Z,100347.69
2023-02-19T14:35:48.962Z,100352.22
2023-02-19T14:38:32.346Z,100353.03
2023-02-19T14:41:01.327Z,100353.06
2023-02-19T14:43:30.911Z,100354.91
2023-02-19T14:46:03.724Z,100339.22
2023-02-19T14:48:41.829Z,100340.00
2023-02-19T14:51:39.614Z,100323.28
2023-02-19T14:54:18.654Z,100318.81
2023-02-19T14:56:51.503Z,100316.22
2023-02-19T14:59:28.449Z,100322.25
2023-02-19T15:02:14.580Z,100328.66
2023-02-19T15:04:43.703Z,100334.78
2023-02-19T15:07:19.601Z,100340.06
2023-02-19T15:09:50.874Z,100330.47
2023-02-19T15:12:25.932Z,100337.53
2023-02-19T15:15:00.020Z,100332.38
2023-02-19T15:17:34.685Z,100343.69
2023-02-19T15:20:09.576Z,100347.28
2023-02-19T15:22:41.609Z,100348.09
2023-02-19T15:25:18.874Z,100362.03
2023-02-19T15:27:48.350Z,100364.78
2023-02-19T15:30:29.709Z,100373.59
2023-02-19T15:32:59.766Z,100370.09
2023-02-19T15:35:32.664Z,100369.22
2023-02-19T15:38:01.567Z,100389.31
2023-02-19T15:40:31.495Z,100379.69
2023-02-19T15:43:01.167Z,100384.91
2023-02-19T15:45:46.383Z,100388.44
2023-02-19T15:48:21.846Z,100403.34
2023-02-19T15:50:59.604Z,100401.59
2023-02-19T15:53:31.216Z,100402.47
2023-02-19T15:56:28.449Z,100416.44
2023-02-19T15:59:36.790Z,100418.19
2023-02-19T16:02:05.406Z,100414.72
2023-02-19T16:04:34.683Z,100427.81
2023-02-19T16:07:03.793Z,100437.41
2023-02-19T16:09:36.499Z,100442.66
2023-02-19T16:12:21.682Z,100438.28
2023-02-19T16:14:51.239Z,100452.22
2023-02-19T16:17:25.125Z,100451.38
2023-02-19T16:19:57.521Z,100453.94
2023-02-19T16:22:30.128Z,100456.59
2023-02-19T16:25:06.772Z,100465.28
2023-02-19T16:27:42.460Z,100474.03
2023-02-19T16:30:25.788Z,100488.84
2023-02-19T16:33:34.910Z,100480.91
2023-02-19T16:36:24.003Z,100480.91
2023-02-19T16:39:07.594Z,100480.06
2023-02-19T16:41:45.355Z,100486.16
2023-02-19T16:44:28.883Z,100494.88
2023-02-19T16:47:05.509Z,100498.44
2023-02-19T16:49:34.050Z,100494.03
2023-02-19T16:52:04.635Z,100485.34
2023-02-19T16:54:33.346Z,100489.69
2023-02-19T16:57:01.874Z,100493.97
2023-02-19T16:59:30.508Z,100490.50
2023-02-19T17:01:59.402Z,100511.25
2023-02-19T17:04:28.326Z,100505.88
2023-02-19T17:06:57.418Z,100505.72
2023-02-19T17:09:26.202Z,100511.00
2023-02-19T17:11:54.732Z,100508.34
2023-02-19T17:14:24.097Z,100520.41
2023-02-19T17:16:53.067Z,100529.91
2023-02-19T17:19:22.541Z,100535.66
2023-02-19T17:21:51.633Z,100540.84
2023-02-19T17:24:19.472Z,100545.16
2023-02-19T17:26:48.426Z,100550.38
2023-02-19T17:29:18.639Z,100559.06
2023-02-19T17:31:47.580Z,100559.94
2023-02-19T17:34:15.387Z,100558.19
2023-02-19T17:36:45.646Z,100560.84
2023-02-19T17:39:15.837Z,100564.31
2023-02-19T17:41:44.490Z,100562.50
2023-02-19T17:44:14.574Z,100564.38
2023-02-19T17:46:45.656Z,100571.19
2023-02-19T17:49:14.480Z,100560.97
2023-02-19T17:51:42.361Z,100571.25
2023-02-19T17:54:11.252Z,100579.16
2023-02-19T17:56:43.442Z,100576.50
2023-02-19T17:59:12.881Z,100579.88
2023-02-19T18:01:41.578Z,100590.34
2023-02-19T18:04:10.236Z,100612.06
2023-02-19T18:06:39.094Z,100618.13
2023-02-19T18:09:08.445Z,100617.03
2023-02-19T18:11:37.491Z,100626.66
2023-02-19T18:14:06.077Z,100636.06
2023-02-19T18:16:34.677Z,100641.66
2023-02-19T18:19:03.981Z,100647.59
2023-02-19T18:21:32.692Z,100660.97
2023-02-19T18:24:01.706Z,100671.34
2023-02-19T18:26:30.291Z,100687.44
2023-02-19T18:28:58.376Z,100695.41
2023-02-19T18:31:26.554Z,100697.44
2023-02-19T18:33:54.371Z,100696.59
2023-02-19T18:36:23.162Z,100695.09
2023-02-19T18:38:51.706Z,100700.59
2023-02-19T18:41:21.310Z,100702.47
2023-02-19T18:43:50.630Z,100693.53
2023-02-19T18:46:21.454Z,100690.91
2023-02-19T18:48:49.209Z,100695.38
2023-02-19T18:51:17.379Z,100687.66
2023-02-19T18:53:45.211Z,100690.19
2023-02-19T18:56:12.353Z,100693.75
2023-02-19T18:58:40.413Z,100698.09
2023-02-19T19:01:07.715Z,100705.13
2023-02-19T19:03:34.861Z,100694.47
2023-02-19T19:06:01.862Z,100710.94
2023-02-19T19:08:30.690Z,100705.91
2023-02-19T19:10:58.636Z,100722.38
2023-02-19T19:13:26.897Z,100730.28
2023-02-19T19:15:55.983Z,100727.25
2023-02-19T19:18:26.424Z,100729.94
2023-02-19T19:20:56.953Z,100746.53
2023-02-19T19:23:23.832Z,100746.25
2023-02-19T19:25:51.513Z,100758.38
2023-02-19T19:28:18.178Z,100763.38
2023-02-19T19:30:44.946Z,100762.47
2023-02-19T19:33:14.258Z,100768.53
2023-02-19T19:35:42.527Z,100772.72
2023-02-19T19:38:10.272Z,100781.31
2023-02-19T19:40:37.413Z,100782.34
2023-02-19T19:43:04.343Z,100771.81
2023-02-19T19:45:31.708Z,100777.84
2023-02-19T19:47:58.690Z,100767.06
2023-02-19T19:50:25.527Z,100765.16
2023-02-19T19:52:52.441Z,100777.16
2023-02-19T19:55:21.728Z,100772.53
2023-02-19T19:57:49.851Z,100768.28
2023-02-19T20:00:18.158Z,100772.38
2023-02-19T20:02:46.774Z,100775.00
2023-02-19T20:05:14.808Z,100752.13
2023-02-19T20:07:41.574Z,100779.00
2023-02-19T20:10:11.526Z,100769.31
2023-02-19T20:12:40.081Z,100780.63
2023-02-19T20:15:09.167Z,100758.75
2023-02-19T20:17:37.680Z,100767.63
2023-02-19T20:20:05.668Z,100766.81
2023-02-19T20:22:37.345Z,100779.66
2023-02-19T20:25:04.751Z,100769.06
2023-02-19T20:27:37.857Z,100770.00
2023-02-19T20:30:06.494Z,100763.94
2023-02-19T20:32:33.722Z,100780.50
2023-02-19T20:35:01.827Z,100782.28
2023-02-19T20:37:32.112Z,100784.47
2023-02-19T20:39:59.512Z,100779.59
2023-02-19T20:42:27.767Z,100784.03
2023-02-19T20:44:57.169Z,100800.56
2023-02-19T20:47:24.330Z,100792.25
2023-02-19T20:49:52.164Z,100798.16
2023-02-19T20:52:25.449Z,100802.97
2023-02-19T20:54:57.234Z,100818.03
2023-02-19T20:57:25.409Z,100819.53
2023-02-19T20:59:54.089Z,100810.97
2023-02-19T21:02:25.272Z,100812.34
2023-02-19T21:04:53.994Z,100818.75
2023-02-19T21:07:21.657Z,100817.53
2023-02-19T21:09:48.609Z,100822.91
2023-02-19T21:12:17.059Z,100815.84
2023-02-19T21:14:45.966Z,100822.81
2023-02-19T21:17:13.977Z,100832.25
2023-02-19T21:19:41.833Z,100834.47
2023-02-19T21:22:10.215Z,100833.22
2023-02-19T21:24:37.585Z,100846.56
2023-02-19T21:27:05.138Z,100839.47
2023-02-19T21:29:33.036Z,100848.19
2023-02-19T21:32:00.194Z,100852.47
2023-02-19T21:34:30.595Z,100845.94
2023-02-19T21:36:58.072Z,100861.41
2023-02-19T21:39:28.566Z,100849.03
2023-02-19T21:41:55.575Z,100871.22
2023-02-19T21:44:23.501Z,100868.72
2023-02-19T21:46:50.539Z,100868.00
2023-02-19T21:49:17.613Z,100872.25
2023-02-19T21:51:45.716Z,100868.84
2023-02-19T21:54:18.803Z,100878.16
2023-02-19T21:56:46.691Z,100869.19
2023-02-19T21:59:13.749Z,100873.56
2023-02-19T22:01:42.234Z,100875.97
2023-02-19T22:04:13.064Z,100884.69
2023-02-19T22:06:43.599Z,100889.38
2023-02-19T22:09:11.992Z,100874.44
2023-02-19T22:11:38.877Z,100891.69
2023-02-19T22:14:05.888Z,100893.47
2023-02-19T22:16:33.374Z,100899.59
2023-02-19T22:19:01.383Z,100898.53
2023-02-19T22:21:33.483Z,100898.16
2023-02-19T22:24:02.397Z,100907.84
2023-02-19T22:26:34.516Z,100909.25
2023-02-19T22:29:07.437Z,100925.56
2023-02-19T22:31:35.752Z,100929.00
2023-02-19T22:34:03.197Z,100933.22
2023-02-19T22:36:31.301Z,100928.94
2023-02-19T22:38:58.598Z,100930.16
2023-02-19T22:41:26.424Z,100932.34
2023-02-19T22:44:00.153Z,100934.94
2023-02-19T22:46:29.984Z,100947.06
2023-02-19T22:48:58.029Z,100947.38
2023-02-19T22:51:25.849Z,100952.63
2023-02-19T22:53:55.279Z,100950.84
2023-02-19T22:56:24.746Z,100944.59
2023-02-19T22:58:52.999Z,100963.13
2023-02-19T23:01:20.661Z,100970.78
2023-02-19T23:03:53.198Z,100991.09
2023-02-19T23:06:25.970Z,100985.25
2023-02-19T23:08:55.075Z,100991.44
2023-02-19T23:11:27.859Z,100990.19
2023-02-19T23:13:55.605Z,100989.66
2023-02-19T23:16:22.598Z,100993.00
2023-02-19T23:18:49.881Z,100998.19
2023-02-19T23:21:18.540Z,101007.56
2023-02-19T23:23:46.186Z,101018.56
2023-02-19T23:26:14.135Z,101020.94
2023-02-19T23:28:43.130Z,101009.50
2023-02-19T23:31:10.230Z,101010.88
2023-02-19T23:33:37.157Z,101005.44
2023-02-19T23:36:05.062Z,101019.19
2023-02-19T23:38:31.999Z,101012.81
2023-02-19T23:40:59.158Z,101027.16
2023-02-19T23:43:26.231Z,101026.91
2023-02-19T23:45:53.056Z,101033.34
2023-02-19T23:48:20.052Z,101048.94
2023-02-19T23:50:46.782Z,101037.06
2023-02-19T23:53:13.635Z,101037.91
2023-02-19T23:55:40.610Z,101048.13
2023-02-19T23:58:07.491Z,101048.28
